Time,TemperatureF,DewpointF,PressureIn,WindDirection,WindDirectionDegrees,WindSpeedMPH,WindSpeedGustMPH,Humidity,HourlyPrecipIn,Conditions,Clouds,dailyrainin,SoftwareType,DateUTC
2013-11-23 00:01:00,80.6,76.7,29.93,ENE,59,8.1,8.1,88,0.00,RA,,0.00,WeatherDisplay:10.37,2013-11-23 06:01:00,
2013-11-23 00:06:00,80.8,76.9,29.93,NE,56,8.1,8.1,88,0.00,RA,,0.00,WeatherDisplay:10.37,2013-11-23 06:06:00,
2013-11-23 00:12:00,80.7,76.5,29.93,ENE,69,6.9,6.9,87,0.00,CLR,,0.00,WeatherDisplay:10.37,2013-11-23 06:12:00,
2013-11-23 00:17:00,80.9,76.7,29.93,ENE,75,7.0,7.0,87,0.00,CLR,,0.00,WeatherDisplay:10.37,2013-11-23 06:17:00,
2013-11-23 00:22:00,81.1,76.9,29.93,ENE,69,6.9,6.9,87,0.00,CLR,,0.00,WeatherDisplay:10.37,2013-11-23 06:22:00,
2013-11-23 00:27:00,81.0,76.8,29.93,ENE,73,5.8,5.8,87,0.00,CLR,,0.00,WeatherDisplay:10.37,2013-11-23 06:27:00,
2013-11-23 00:32:00,80.9,76.3,29.93,ENE,67,5.8,5.8,86,0.00,CLR,,0.00,WeatherDisplay:10.37,2013-11-23 06:32:00,
2013-11-23 00:37:00,80.9,76.0,29.93,ENE,72,8.1,8.1,85,0.00,CLR,,0.00,WeatherDisplay:10.37,2013-11-23 06:37:00,
2013-11-23 00:42:00,81.2,76.3,29.93,ENE,67,6.9,6.9,85,0.00,CLR,,0.00,WeatherDisplay:10.37,2013-11-23 06:42:00,
2013-11-23 00:47:00,81.2,76.6,29.93,ENE,67,8.1,8.1,86,0.00,CLR,,0.00,WeatherDisplay:10.37,2013-11-23 06:47:00,
2013-11-23 00:52:00,81.2,76.6,29.93,NE,53,6.9,6.9,86,0.00,CLR,,0.00,WeatherDisplay:10.37,2013-11-23 06:52:00,
2013-11-23 00:57:00,81.1,76.5,29.93,ENE,65,6.9,6.9,86,0.00,CLR,,0.00,WeatherDisplay:10.37,2013-11-23 06:57:00,
2013-11-23 01:02:00,81.2,76.6,29.92,ENE,64,5.8,5.8,86,0.00,CLR,,0.00,WeatherDisplay:10.37,2013-11-23 07:02:00,
2013-11-23 01:07:00,81.2,76.6,29.92,East,79,6.9,6.9,86,0.00,CLR,,0.00,WeatherDisplay:10.37,2013-11-23 07:07:00,
2013-11-23 01:12:00,81.3,76.7,29.92,ENE,71,6.9,6.9,86,0.00,CLR,,0.00,WeatherDisplay:10.37,2013-11-23 07:12:00,
2013-11-23 01:17:00,81.3,77.1,29.92,ENE,71,5.8,5.8,87,0.00,CLR,,0.00,WeatherDisplay:10.37,2013-11-23 07:17:00,
2013-11-23 01:22:00,81.3,77.1,29.92,ENE,70,6.9,6.9,87,0.00,CLR,,0.00,WeatherDisplay:10.37,2013-11-23 07:22:00,
2013-11-23 01:27:00,81.4,77.2,29.92,ENE,67,6.9,6.9,87,0.00,CLR,,0.00,WeatherDisplay:10.37,2013-11-23 07:27:00,
2013-11-23 01:32:00,80.8,76.2,29.92,ENE,69,10.4,10.4,86,0.00,CLR,,0.00,WeatherDisplay:10.37,2013-11-23 07:32:00,
2013-11-23 01:37:00,80.9,77.0,29.92,ENE,75,6.9,6.9,88,0.00,CLR,,0.00,WeatherDisplay:10.37,2013-11-23 07:37:00,
2013-11-23 01:42:00,81.2,77.3,29.92,East,81,8.1,8.1,88,0.00,CLR,,0.00,WeatherDisplay:10.37,2013-11-23 07:42:00,
2013-11-23 01:47:00,81.3,77.1,29.91,ENE,74,5.8,5.8,87,0.00,CLR,,0.00,WeatherDisplay:10.37,2013-11-23 07:47:00,
2013-11-23 01:52:00,81.5,77.6,29.91,ENE,58,7.0,7.0,88,0.00,CLR,,0.00,WeatherDisplay:10.37,2013-11-23 07:52:00,
2013-11-23 01:57:00,80.9,76.0,29.91,East,101,16.1,16.1,85,0.00,CLR,,0.00,WeatherDisplay:10.37,2013-11-23 07:57:00,
2013-11-23 02:02:00,79.3,75.1,29.91,ESE,104,11.5,11.5,87,0.00,CLR,,0.00,WeatherDisplay:10.37,2013-11-23 08:02:00,
2013-11-23 02:07:00,79.1,75.2,29.92,ESE,102,12.0,12.0,88,0.00,CLR,,0.00,WeatherDisplay:10.37,2013-11-23 08:07:00,
2013-11-23 02:12:00,78.7,75.2,29.91,ESE,112,11.5,11.5,89,0.07,RA,,0.08,WeatherDisplay:10.37,2013-11-23 08:12:00,
2013-11-23 02:17:00,78.1,74.6,29.91,SE,142,12.7,12.7,89,0.10,RA,,0.10,WeatherDisplay:10.37,2013-11-23 08:17:00,
2013-11-23 02:22:00,78.3,75.5,29.91,ESE,123,13.8,13.8,91,0.10,RA,,0.10,WeatherDisplay:10.37,2013-11-23 08:22:00,
2013-11-23 02:27:00,78.4,75.6,29.91,ESE,114,11.5,11.5,91,0.11,RA,,0.11,WeatherDisplay:10.37,2013-11-23 08:27:00,
2013-11-23 02:32:00,78.0,74.8,29.91,ESE,110,10.4,10.4,90,0.11,RA,,0.11,WeatherDisplay:10.37,2013-11-23 08:32:00,
2013-11-23 02:37:00,79.0,75.8,29.91,ENE,78,8.1,8.1,90,0.11,,,0.11,WeatherDisplay:10.37,2013-11-23 08:37:00,
2013-11-23 02:42:00,79.1,75.6,29.91,ENE,76,8.1,8.1,89,0.12,RA,,0.12,WeatherDisplay:10.37,2013-11-23 08:42:00,
2013-11-23 02:47:00,79.1,75.6,29.91,East,85,6.9,6.9,89,0.12,RA,,0.12,WeatherDisplay:10.37,2013-11-23 08:47:00,
2013-11-23 02:52:00,79.4,75.5,29.91,East,83,5.0,5.0,88,0.12,,,0.12,WeatherDisplay:10.37,2013-11-23 08:52:00,
2013-11-23 02:57:00,79.8,75.6,29.92,ENE,78,4.0,4.0,87,0.12,CLR,,0.12,WeatherDisplay:10.37,2013-11-23 08:57:00,
2013-11-23 03:02:00,79.8,75.6,29.92,NE,50,3.5,3.5,87,0.12,CLR,,0.12,WeatherDisplay:10.37,2013-11-23 09:02:00,
2013-11-23 03:07:00,79.8,75.6,29.92,ENE,59,2.3,2.3,87,0.13,RA,,0.13,WeatherDisplay:10.37,2013-11-23 09:07:00,
2013-11-23 03:12:00,79.8,75.9,29.92,ENE,69,3.5,3.5,88,0.06,RA,,0.13,WeatherDisplay:10.37,2013-11-23 09:12:00,
2013-11-23 03:17:00,79.7,75.8,29.92,NE,41,3.5,3.5,88,0.03,,,0.13,WeatherDisplay:10.37,2013-11-23 09:17:00,
2013-11-23 03:22:00,79.5,75.6,29.92,NE,41,0.0,0.0,88,0.03,CLR,,0.13,WeatherDisplay:10.37,2013-11-23 09:22:00,
2013-11-23 03:27:00,79.5,75.6,29.91,NE,50,1.1,1.1,88,0.03,RA,,0.14,WeatherDisplay:10.37,2013-11-23 09:27:00,
2013-11-23 03:32:00,79.4,75.5,29.90,NNE,28,5.0,5.0,88,0.03,RA,,0.14,WeatherDisplay:10.37,2013-11-23 09:32:00,
2013-11-23 03:37:00,79.4,75.9,29.90,North,359,3.5,3.5,89,0.03,CLR,,0.14,WeatherDisplay:10.37,2013-11-23 09:37:00,
2013-11-23 03:42:00,79.4,75.9,29.90,NNE,29,5.8,5.8,89,0.02,CLR,,0.14,WeatherDisplay:10.37,2013-11-23 09:42:00,
2013-11-23 03:47:00,79.4,75.9,29.90,NNE,23,3.5,3.5,89,0.02,CLR,,0.14,WeatherDisplay:10.37,2013-11-23 09:47:00,
2013-11-23 03:52:00,79.4,75.9,29.91,NNE,12,3.5,3.5,89,0.02,CLR,,0.14,WeatherDisplay:10.37,2013-11-23 09:52:00,
2013-11-23 03:57:00,79.3,75.8,29.91,NNW,346,4.6,4.6,89,0.02,CLR,,0.14,WeatherDisplay:10.37,2013-11-23 09:57:00,
2013-11-23 04:02:00,79.2,75.7,29.91,NNW,345,4.6,4.6,89,0.02,CLR,,0.14,WeatherDisplay:10.37,2013-11-23 10:02:00,
2013-11-23 04:07:00,79.0,75.8,29.91,NNW,341,3.5,3.5,90,0.01,CLR,,0.14,WeatherDisplay:10.37,2013-11-23 10:07:00,
2013-11-23 04:12:00,78.9,75.7,29.91,NNW,347,3.5,3.5,90,0.01,CLR,,0.14,WeatherDisplay:10.37,2013-11-23 10:12:00,
2013-11-23 04:17:00,78.9,75.7,29.91,NNE,31,3.5,3.5,90,0.01,CLR,,0.14,WeatherDisplay:10.37,2013-11-23 10:17:00,
2013-11-23 04:22:00,78.9,75.7,29.91,NNE,19,5.8,5.8,90,0.01,CLR,,0.14,WeatherDisplay:10.37,2013-11-23 10:22:00,
2013-11-23 04:27:00,79.0,75.8,29.90,NE,51,4.6,4.6,90,0.00,CLR,,0.14,WeatherDisplay:10.37,2013-11-23 10:27:00,
2013-11-23 04:32:00,80.1,76.9,29.90,ENE,67,12.7,12.7,90,0.00,CLR,,0.14,WeatherDisplay:10.37,2013-11-23 10:32:00,
2013-11-23 04:37:00,80.0,75.8,29.90,East,83,20.0,20.0,87,0.00,,,0.14,WeatherDisplay:10.37,2013-11-23 10:37:00,
2013-11-23 04:42:00,79.8,74.9,29.91,ENE,78,20.7,20.7,85,0.00,,,0.14,WeatherDisplay:10.37,2013-11-23 10:42:00,
2013-11-23 04:47:00,80.2,75.3,29.91,ENE,76,19.6,19.6,85,0.00,,,0.14,WeatherDisplay:10.37,2013-11-23 10:47:00,
2013-11-23 04:52:00,79.8,74.2,29.90,East,90,18.4,18.4,83,0.00,CLR,,0.14,WeatherDisplay:10.37,2013-11-23 10:52:00,
2013-11-23 04:57:00,80.2,73.8,29.91,East,90,20.7,20.7,81,0.00,,,0.14,WeatherDisplay:10.37,2013-11-23 10:57:00,
2013-11-23 05:03:00,80.4,74.4,29.91,East,86,19.6,19.6,82,0.00,,,0.14,WeatherDisplay:10.37,2013-11-23 11:03:00,
2013-11-23 05:08:00,80.5,74.5,29.91,East,96,18.4,18.4,82,0.00,CLR,,0.14,WeatherDisplay:10.37,2013-11-23 11:08:00,
2013-11-23 05:13:00,80.3,74.3,29.91,East,96,15.0,15.0,82,0.00,CLR,,0.14,WeatherDisplay:10.37,2013-11-23 11:13:00,
2013-11-23 05:18:00,80.1,74.1,29.91,East,98,15.0,15.0,82,0.00,CLR,,0.14,WeatherDisplay:10.37,2013-11-23 11:18:00,
2013-11-23 05:23:00,80.0,74.4,29.91,East,87,12.0,12.0,83,0.00,CLR,,0.14,WeatherDisplay:10.37,2013-11-23 11:23:00,
2013-11-23 05:28:00,80.1,73.7,29.92,East,80,11.5,11.5,81,0.01,RA,,0.15,WeatherDisplay:10.37,2013-11-23 11:28:00,
2013-11-23 05:33:00,80.2,74.6,29.92,East,79,12.0,12.0,83,0.01,RA,,0.15,WeatherDisplay:10.37,2013-11-23 11:33:00,
2013-11-23 05:38:00,80.2,74.6,29.93,ENE,77,12.7,12.7,83,0.01,CLR,,0.15,WeatherDisplay:10.37,2013-11-23 11:38:00,
2013-11-23 05:43:00,80.4,75.1,29.93,East,86,13.0,13.0,84,0.01,CLR,,0.15,WeatherDisplay:10.37,2013-11-23 11:43:00,
2013-11-23 05:48:00,80.3,75.7,29.93,East,81,13.8,13.8,86,0.01,CLR,,0.15,WeatherDisplay:10.37,2013-11-23 11:48:00,
2013-11-23 05:53:00,80.3,76.1,29.93,East,93,14.0,14.0,87,0.01,CLR,,0.15,WeatherDisplay:10.37,2013-11-23 11:53:00,
2013-11-23 05:58:00,80.2,76.0,29.93,East,95,15.0,15.0,87,0.01,CLR,,0.15,WeatherDisplay:10.37,2013-11-23 11:58:00,
2013-11-23 06:03:00,80.3,76.1,29.94,East,93,15.0,15.0,87,0.01,CLR,,0.15,WeatherDisplay:10.37,2013-11-23 12:03:00,
2013-11-23 06:08:00,80.5,76.3,29.93,East,100,13.8,13.8,87,0.01,CLR,,0.15,WeatherDisplay:10.37,2013-11-23 12:08:00,
2013-11-23 06:13:00,80.6,76.4,29.93,East,93,12.7,12.7,87,0.01,CLR,,0.15,WeatherDisplay:10.37,2013-11-23 12:13:00,
2013-11-23 06:18:00,80.5,76.3,29.93,East,87,12.7,12.7,87,0.01,CLR,,0.15,WeatherDisplay:10.37,2013-11-23 12:18:00,
2013-11-23 06:23:00,80.6,76.4,29.93,East,87,12.7,12.7,87,0.01,CLR,,0.15,WeatherDisplay:10.37,2013-11-23 12:23:00,
2013-11-23 06:28:00,80.6,76.0,29.93,East,84,8.1,8.5,86,0.00,CLR,,0.15,WeatherDisplay:10.37,2013-11-23 12:28:00,
2013-11-23 06:33:00,80.7,76.5,29.93,East,92,11.5,11.5,87,0.00,CLR,,0.15,WeatherDisplay:10.37,2013-11-23 12:33:00,
2013-11-23 06:38:00,80.9,76.7,29.93,East,85,8.1,8.1,87,0.00,CLR,,0.15,WeatherDisplay:10.37,2013-11-23 12:38:00,
2013-11-23 06:43:00,81.0,76.4,29.93,East,90,10.4,10.4,86,0.00,CLR,,0.15,WeatherDisplay:10.37,2013-11-23 12:43:00,
2013-11-23 06:48:00,81.2,76.6,29.93,ENE,76,10.4,10.4,86,0.00,CLR,,0.15,WeatherDisplay:10.37,2013-11-23 12:48:00,
2013-11-23 06:53:00,81.4,77.2,29.94,ENE,78,12.7,12.7,87,0.00,CLR,,0.15,WeatherDisplay:10.37,2013-11-23 12:53:00,
2013-11-23 06:58:00,81.4,76.8,29.94,East,79,12.7,12.7,86,0.00,CLR,,0.15,WeatherDisplay:10.37,2013-11-23 12:58:00,
2013-11-23 07:03:00,81.6,77.4,29.94,East,87,11.5,11.5,87,0.00,CLR,,0.15,WeatherDisplay:10.37,2013-11-23 13:03:00,
2013-11-23 07:08:00,81.6,77.4,29.94,ENE,77,10.4,10.4,87,0.00,CLR,,0.15,WeatherDisplay:10.37,2013-11-23 13:08:00,
2013-11-23 07:13:00,81.5,77.3,29.94,ENE,67,10.4,10.4,87,0.00,CLR,,0.15,WeatherDisplay:10.37,2013-11-23 13:13:00,
2013-11-23 07:18:00,81.5,77.3,29.94,ENE,75,9.2,9.2,87,0.00,CLR,,0.15,WeatherDisplay:10.37,2013-11-23 13:18:00,
2013-11-23 07:23:00,81.6,77.4,29.95,ENE,73,9.2,9.2,87,0.00,CLR,,0.15,WeatherDisplay:10.37,2013-11-23 13:23:00,
2013-11-23 07:28:00,81.6,77.0,29.95,East,81,9.2,9.2,86,0.00,CLR,,0.15,WeatherDisplay:10.37,2013-11-23 13:28:00,
2013-11-23 07:33:00,81.7,77.5,29.96,ENE,71,8.1,8.1,87,0.00,CLR,,0.15,WeatherDisplay:10.37,2013-11-23 13:33:00,
2013-11-23 07:38:00,81.6,77.4,29.96,ENE,67,11.5,11.5,87,0.00,CLR,,0.15,WeatherDisplay:10.37,2013-11-23 13:38:00,
2013-11-23 07:43:00,81.7,77.5,29.96,East,81,8.1,8.1,87,0.00,CLR,,0.15,WeatherDisplay:10.37,2013-11-23 13:43:00,
2013-11-23 09:41:00,78.4,74.9,29.99,WSW,246,6.9,6.9,89,0.11,RA,,0.26,WeatherDisplay:10.37,2013-11-23 15:41:00,
2013-11-23 09:46:00,77.9,74.4,29.99,WSW,248,3.5,3.5,89,0.11,RA,,0.26,WeatherDisplay:10.37,2013-11-23 15:46:00,
2013-11-23 09:51:00,77.6,74.1,29.99,West,279,2.3,2.3,89,0.12,RA,,0.27,WeatherDisplay:10.37,2013-11-23 15:51:00,
2013-11-23 09:56:00,77.4,74.2,29.99,West,274,5.0,5.0,90,0.12,RA,,0.27,WeatherDisplay:10.37,2013-11-23 15:56:00,
2013-11-23 10:01:00,77.1,73.9,29.99,West,266,8.1,8.1,90,0.12,CLR,,0.27,WeatherDisplay:10.37,2013-11-23 16:01:00,
2013-11-23 10:06:00,77.1,73.9,29.99,West,274,6.9,6.9,90,0.12,CLR,,0.27,WeatherDisplay:10.37,2013-11-23 16:06:00,
2013-11-23 10:11:00,77.0,74.2,29.98,WSW,237,6.9,6.9,91,0.12,CLR,,0.27,WeatherDisplay:10.37,2013-11-23 16:11:00,
2013-11-23 10:16:00,77.0,74.2,29.99,NW,312,3.5,3.5,91,0.12,CLR,,0.27,WeatherDisplay:10.37,2013-11-23 16:16:00,
2013-11-23 10:21:00,76.9,74.1,29.99,NW,310,8.1,8.1,91,0.21,RA,,0.38,WeatherDisplay:10.37,2013-11-23 16:21:00,
2013-11-23 10:26:00,75.9,73.1,29.99,WNW,290,3.5,3.5,91,0.41,RA,,0.58,WeatherDisplay:10.37,2013-11-23 16:26:00,
2013-11-23 10:31:00,75.6,72.8,29.99,WSW,246,4.6,4.6,91,0.48,RA,,0.63,WeatherDisplay:10.37,2013-11-23 16:31:00,
2013-11-23 10:36:00,75.5,72.7,29.98,WNW,300,3.5,3.5,91,0.49,RA,,0.64,WeatherDisplay:10.37,2013-11-23 16:36:00,
2013-11-23 10:41:00,75.5,73.0,29.98,West,272,7.0,7.0,92,0.39,RA,,0.65,WeatherDisplay:10.37,2013-11-23 16:41:00,
2013-11-23 10:46:00,75.3,72.5,29.98,West,274,2.3,2.3,91,0.39,RA,,0.65,WeatherDisplay:10.37,2013-11-23 16:46:00,
2013-11-23 10:51:00,75.2,72.7,29.98,West,273,0.0,0.0,92,0.38,CLR,,0.65,WeatherDisplay:10.37,2013-11-23 16:51:00,
2013-11-23 10:56:00,75.0,72.5,29.97,West,274,2.3,2.3,92,0.38,CLR,,0.65,WeatherDisplay:10.37,2013-11-23 16:56:00,
2013-11-23 11:01:00,75.0,72.5,29.97,West,274,0.0,0.0,92,0.38,CLR,,0.65,WeatherDisplay:10.37,2013-11-23 17:01:00,
2013-11-23 11:06:00,75.1,72.6,29.97,West,274,0.0,0.0,92,0.38,CLR,,0.65,WeatherDisplay:10.37,2013-11-23 17:06:00,
2013-11-23 11:11:00,75.4,72.9,29.97,West,274,2.0,2.0,92,0.38,CLR,,0.65,WeatherDisplay:10.37,2013-11-23 17:11:00,
2013-11-23 11:16:00,75.8,73.6,29.96,West,277,2.3,2.3,93,0.38,CLR,,0.65,WeatherDisplay:10.37,2013-11-23 17:16:00,
2013-11-23 11:21:00,76.1,73.9,29.96,WNW,300,2.3,2.3,93,0.32,CLR,,0.65,WeatherDisplay:10.37,2013-11-23 17:21:00,
2013-11-23 11:26:00,76.3,74.1,29.96,WNW,300,1.0,0.0,93,0.15,CLR,,0.65,WeatherDisplay:10.37,2013-11-23 17:26:00,
2013-11-23 11:31:00,76.5,74.3,29.96,WNW,287,0.0,0.0,93,0.02,CLR,,0.65,WeatherDisplay:10.37,2013-11-23 17:31:00,
2013-11-23 11:36:00,76.6,74.4,29.96,NW,305,3.5,3.5,93,0.01,CLR,,0.65,WeatherDisplay:10.37,2013-11-23 17:36:00,
2013-11-23 11:41:00,76.6,74.4,29.96,NW,306,2.3,2.3,93,0.01,RA,,0.66,WeatherDisplay:10.37,2013-11-23 17:41:00,
2013-11-23 11:46:00,77.0,74.8,29.96,NW,306,1.1,1.1,93,0.01,RA,,0.66,WeatherDisplay:10.37,2013-11-23 17:46:00,
2013-11-23 11:52:00,77.5,75.3,29.95,North,350,0.0,0.0,93,0.01,CLR,,0.66,WeatherDisplay:10.37,2013-11-23 17:52:00,
2013-11-23 11:57:00,77.7,75.5,29.95,WNW,291,2.0,2.0,93,0.01,CLR,,0.66,WeatherDisplay:10.37,2013-11-23 17:57:00,
2013-11-23 12:02:00,77.8,75.6,29.94,WNW,287,2.3,2.3,93,0.01,CLR,,0.66,WeatherDisplay:10.37,2013-11-23 18:02:00,
2013-11-23 12:07:00,77.5,75.3,29.94,NW,308,0.0,0.5,93,0.01,CLR,,0.66,WeatherDisplay:10.37,2013-11-23 18:07:00,
2013-11-23 12:12:00,77.5,75.3,29.94,NW,309,3.5,3.5,93,0.01,CLR,,0.66,WeatherDisplay:10.37,2013-11-23 18:12:00,
2013-11-23 12:17:00,77.6,75.4,29.93,NW,309,0.0,0.0,93,0.01,CLR,,0.66,WeatherDisplay:10.37,2013-11-23 18:17:00,
2013-11-23 12:22:00,77.8,75.6,29.93,NW,309,2.3,0.0,93,0.01,CLR,,0.66,WeatherDisplay:10.37,2013-11-23 18:22:00,
2013-11-23 12:27:00,78.1,76.2,29.93,WNW,295,3.5,3.5,94,0.01,CLR,,0.66,WeatherDisplay:10.37,2013-11-23 18:27:00,
2013-11-23 12:32:00,78.1,75.9,29.93,NW,304,3.5,3.5,93,0.01,CLR,,0.66,WeatherDisplay:10.37,2013-11-23 18:32:00,
2013-11-23 12:37:00,78.0,75.8,29.93,WNW,301,3.5,3.5,93,0.01,CLR,,0.66,WeatherDisplay:10.37,2013-11-23 18:37:00,
2013-11-23 12:42:00,78.2,76.3,29.92,NW,314,6.0,6.0,94,0.00,CLR,,0.66,WeatherDisplay:10.37,2013-11-23 18:42:00,
2013-11-23 12:47:00,78.1,75.9,29.92,NW,318,3.5,3.5,93,0.00,CLR,,0.66,WeatherDisplay:10.37,2013-11-23 18:47:00,
2013-11-23 12:52:00,77.8,75.6,29.91,NNW,334,3.5,3.5,93,0.00,CLR,,0.66,WeatherDisplay:10.37,2013-11-23 18:52:00,
2013-11-23 12:57:00,78.0,75.8,29.91,NW,320,6.0,6.0,93,0.00,CLR,,0.66,WeatherDisplay:10.37,2013-11-23 18:57:00,
2013-11-23 13:02:00,78.5,76.3,29.91,NNW,335,8.1,8.1,93,0.00,CLR,,0.66,WeatherDisplay:10.37,2013-11-23 19:02:00,
2013-11-23 13:07:00,79.1,76.9,29.91,NNW,343,6.0,6.0,93,0.00,CLR,,0.66,WeatherDisplay:10.37,2013-11-23 19:07:00,
2013-11-23 13:12:00,79.2,77.0,29.91,NNW,327,5.8,5.8,93,0.00,CLR,,0.66,WeatherDisplay:10.37,2013-11-23 19:12:00,
2013-11-23 13:17:00,79.5,77.3,29.90,NNW,337,4.6,4.6,93,0.00,CLR,,0.66,WeatherDisplay:10.37,2013-11-23 19:17:00,
2013-11-23 13:22:00,79.8,77.3,29.90,North,352,6.9,6.9,92,0.00,CLR,,0.66,WeatherDisplay:10.37,2013-11-23 19:22:00,
2013-11-23 13:27:00,80.1,77.6,29.90,NNW,347,6.9,6.9,92,0.00,CLR,,0.66,WeatherDisplay:10.37,2013-11-23 19:27:00,
2013-11-23 13:32:00,80.3,77.8,29.90,NNE,18,3.5,3.5,92,0.00,CLR,,0.66,WeatherDisplay:10.37,2013-11-23 19:32:00,
2013-11-23 13:37:00,80.4,77.9,29.89,North,354,4.0,4.0,92,0.00,CLR,,0.66,WeatherDisplay:10.37,2013-11-23 19:37:00,
2013-11-23 13:42:00,80.7,78.2,29.89,North,352,3.5,3.5,92,0.00,CLR,,0.66,WeatherDisplay:10.37,2013-11-23 19:42:00,
2013-11-23 13:47:00,80.9,78.4,29.89,NNE,21,3.5,3.5,92,0.00,CLR,,0.66,WeatherDisplay:10.37,2013-11-23 19:47:00,
2013-11-23 13:52:00,81.2,78.3,29.90,North,8,5.8,5.8,91,0.00,CLR,,0.66,WeatherDisplay:10.37,2013-11-23 19:52:00,
2013-11-23 13:57:00,81.1,78.2,29.90,North,8,5.8,5.8,91,0.00,CLR,,0.66,WeatherDisplay:10.37,2013-11-23 19:57:00,
2013-11-23 14:02:00,81.1,78.2,29.90,NE,46,4.6,4.6,91,0.00,CLR,,0.66,WeatherDisplay:10.37,2013-11-23 20:02:00,
2013-11-23 14:07:00,81.2,78.3,29.90,NE,52,8.1,8.1,91,0.00,CLR,,0.66,WeatherDisplay:10.37,2013-11-23 20:07:00,
2013-11-23 14:12:00,81.1,77.2,29.90,NE,41,11.5,11.5,88,0.00,CLR,,0.66,WeatherDisplay:10.37,2013-11-23 20:12:00,
2013-11-23 14:17:00,81.5,76.6,29.90,ENE,66,11.5,11.5,85,0.00,CLR,,0.66,WeatherDisplay:10.37,2013-11-23 20:17:00,
2013-11-23 14:22:00,81.8,76.5,29.90,ENE,60,13.8,13.8,84,0.00,CLR,,0.66,WeatherDisplay:10.37,2013-11-23 20:22:00,
2013-11-23 14:27:00,81.9,76.2,29.89,NE,54,13.8,13.8,83,0.00,CLR,,0.66,WeatherDisplay:10.37,2013-11-23 20:27:00,
2013-11-23 14:32:00,81.9,75.9,29.89,NE,51,11.5,11.5,82,0.00,CLR,,0.66,WeatherDisplay:10.37,2013-11-23 20:32:00,
2013-11-23 14:37:00,82.0,76.0,29.89,ENE,71,15.0,15.0,82,0.00,CLR,,0.66,WeatherDisplay:10.37,2013-11-23 20:37:00,
2013-11-23 14:42:00,82.1,76.1,29.89,ENE,71,12.7,12.7,82,0.00,CLR,,0.66,WeatherDisplay:10.37,2013-11-23 20:42:00,
2013-11-23 14:47:00,82.0,76.0,29.89,ENE,77,15.0,15.0,82,0.00,CLR,,0.66,WeatherDisplay:10.37,2013-11-23 20:47:00,
2013-11-23 14:52:00,82.0,75.6,29.89,ENE,61,12.7,12.7,81,0.00,CLR,,0.66,WeatherDisplay:10.37,2013-11-23 20:52:00,
2013-11-23 14:57:00,82.0,75.6,29.89,ENE,60,12.0,12.0,81,0.00,CLR,,0.66,WeatherDisplay:10.37,2013-11-23 20:57:00,
2013-11-23 15:02:00,82.1,75.7,29.89,ENE,72,11.5,11.5,81,0.00,CLR,,0.66,WeatherDisplay:10.37,2013-11-23 21:02:00,
2013-11-23 15:07:00,82.1,75.3,29.89,ENE,67,10.4,10.4,80,0.00,CLR,,0.66,WeatherDisplay:10.37,2013-11-23 21:07:00,
2013-11-23 15:12:00,82.2,75.4,29.89,ENE,69,12.7,12.7,80,0.00,CLR,,0.66,WeatherDisplay:10.37,2013-11-23 21:12:00,
2013-11-23 15:17:00,82.1,74.6,29.89,NE,54,11.5,11.5,78,0.00,CLR,,0.66,WeatherDisplay:10.37,2013-11-23 21:17:00,
2013-11-23 15:22:00,82.2,74.7,29.88,ENE,68,11.5,11.5,78,0.00,CLR,,0.66,WeatherDisplay:10.37,2013-11-23 21:22:00,
2013-11-23 15:27:00,82.2,75.4,29.88,ENE,77,11.5,11.5,80,0.00,CLR,,0.66,WeatherDisplay:10.37,2013-11-23 21:27:00,
2013-11-23 15:32:00,82.0,75.2,29.89,ENE,67,11.5,11.5,80,0.00,CLR,,0.66,WeatherDisplay:10.37,2013-11-23 21:32:00,
2013-11-23 15:37:00,82.0,75.2,29.89,ENE,61,11.5,11.5,80,0.00,CLR,,0.66,WeatherDisplay:10.37,2013-11-23 21:37:00,
2013-11-23 15:42:00,81.9,74.7,29.88,ENE,63,12.7,12.7,79,0.00,CLR,,0.66,WeatherDisplay:10.37,2013-11-23 21:42:00,
2013-11-23 15:47:00,82.0,74.8,29.89,ENE,71,11.5,11.5,79,0.00,CLR,,0.66,WeatherDisplay:10.37,2013-11-23 21:47:00,
2013-11-23 15:52:00,82.0,75.2,29.89,NE,53,11.5,11.5,80,0.00,CLR,,0.66,WeatherDisplay:10.37,2013-11-23 21:52:00,
2013-11-23 15:57:00,82.0,74.8,29.89,ENE,73,11.5,11.5,79,0.00,CLR,,0.66,WeatherDisplay:10.37,2013-11-23 21:57:00,
2013-11-23 16:03:00,82.0,74.5,29.89,NE,41,15.0,15.0,78,0.00,CLR,,0.66,WeatherDisplay:10.37,2013-11-23 22:03:00,
2013-11-23 16:08:00,82.1,74.6,29.90,ENE,70,12.7,12.7,78,0.00,CLR,,0.66,WeatherDisplay:10.37,2013-11-23 22:08:00,
2013-11-23 16:13:00,82.1,74.6,29.90,ENE,65,12.7,12.7,78,0.00,CLR,,0.66,WeatherDisplay:10.37,2013-11-23 22:13:00,
2013-11-23 16:18:00,82.2,74.7,29.90,ENE,64,11.5,11.5,78,0.00,CLR,,0.66,WeatherDisplay:10.37,2013-11-23 22:18:00,
2013-11-23 16:23:00,82.1,74.2,29.90,ENE,63,11.5,11.5,77,0.00,CLR,,0.66,WeatherDisplay:10.37,2013-11-23 22:23:00,
2013-11-23 16:28:00,82.3,74.7,29.91,ENE,61,10.4,10.4,78,0.00,CLR,,0.66,WeatherDisplay:10.37,2013-11-23 22:28:00,
2013-11-23 16:33:00,82.1,74.2,29.91,ENE,59,11.5,11.5,77,0.00,CLR,,0.66,WeatherDisplay:10.37,2013-11-23 22:33:00,
2013-11-23 16:38:00,82.0,73.3,29.91,ENE,72,11.5,11.5,75,0.00,CLR,,0.66,WeatherDisplay:10.37,2013-11-23 22:38:00,
2013-11-23 16:43:00,82.0,72.9,29.91,ENE,64,11.5,11.5,74,0.00,CLR,,0.66,WeatherDisplay:10.37,2013-11-23 22:43:00,
2013-11-23 16:48:00,82.2,73.9,29.91,ENE,66,10.4,10.4,76,0.00,CLR,,0.66,WeatherDisplay:10.37,2013-11-23 22:48:00,
2013-11-23 16:53:00,82.1,74.2,29.91,NE,55,10.4,10.4,77,0.00,CLR,,0.66,WeatherDisplay:10.37,2013-11-23 22:53:00,
2013-11-23 16:58:00,82.2,74.3,29.91,ENE,65,11.5,11.5,77,0.00,CLR,,0.66,WeatherDisplay:10.37,2013-11-23 22:58:00,
2013-11-23 17:03:00,82.1,74.2,29.91,ENE,69,11.5,11.5,77,0.00,CLR,,0.66,WeatherDisplay:10.37,2013-11-23 23:03:00,
2013-11-23 17:08:00,81.9,73.2,29.91,ENE,57,10.4,10.4,75,0.00,CLR,,0.66,WeatherDisplay:10.37,2013-11-23 23:08:00,
2013-11-23 17:09:00,82.0,73.7,29.91,NNE,29,11.5,11.5,76,0.00,CLR,,0.66,WeatherDisplay:10.37,2013-11-23 23:09:00,
2013-11-23 17:14:00,82.0,73.7,29.92,ENE,60,9.2,9.2,76,0.00,CLR,,0.66,WeatherDisplay:10.37,2013-11-23 23:14:00,
2013-11-23 17:19:00,82.0,73.7,29.91,NE,46,11.5,11.5,76,0.00,CLR,,0.66,WeatherDisplay:10.37,2013-11-23 23:19:00,
2013-11-23 17:24:00,81.9,73.6,29.92,NNE,29,11.5,11.5,76,0.00,CLR,,0.66,WeatherDisplay:10.37,2013-11-23 23:24:00,
2013-11-23 17:29:00,81.9,74.0,29.91,NNE,31,11.5,11.5,77,0.00,CLR,,0.66,WeatherDisplay:10.37,2013-11-23 23:29:00,
2013-11-23 17:34:00,82.0,74.1,29.91,ENE,58,11.5,11.5,77,0.00,CLR,,0.66,WeatherDisplay:10.37,2013-11-23 23:34:00,
2013-11-23 17:39:00,82.0,74.5,29.91,NE,46,11.0,11.0,78,0.00,CLR,,0.66,WeatherDisplay:10.37,2013-11-23 23:39:00,
2013-11-23 17:44:00,82.1,74.9,29.91,NE,36,10.4,10.4,79,0.00,CLR,,0.66,WeatherDisplay:10.37,2013-11-23 23:44:00,
2013-11-23 17:49:00,82.1,74.9,29.91,NE,41,10.4,10.4,79,0.00,CLR,,0.66,WeatherDisplay:10.37,2013-11-23 23:49:00,
2013-11-23 17:54:00,82.0,74.8,29.91,NE,41,10.4,10.4,79,0.00,CLR,,0.66,WeatherDisplay:10.37,2013-11-23 23:54:00,
2013-11-23 17:59:00,82.0,74.8,29.91,ENE,71,11.5,11.5,79,0.00,CLR,,0.66,WeatherDisplay:10.37,2013-11-23 23:59:00,
2013-11-23 18:04:00,82.1,74.9,29.91,ENE,65,11.5,11.5,79,0.00,CLR,,0.66,WeatherDisplay:10.37,2013-11-24 00:04:00,
2013-11-23 18:09:00,82.0,74.8,29.92,NE,52,11.5,11.5,79,0.00,CLR,,0.66,WeatherDisplay:10.37,2013-11-24 00:09:00,
2013-11-23 18:14:00,82.0,74.8,29.92,NE,36,9.0,9.0,79,0.00,CLR,,0.66,WeatherDisplay:10.37,2013-11-24 00:14:00,
2013-11-23 18:19:00,81.9,74.7,29.92,ENE,62,10.4,10.4,79,0.00,CLR,,0.66,WeatherDisplay:10.37,2013-11-24 00:19:00,
2013-11-23 18:24:00,82.0,74.8,29.92,NE,46,11.5,11.5,79,0.00,CLR,,0.66,WeatherDisplay:10.37,2013-11-24 00:24:00,
2013-11-23 18:29:00,82.0,75.2,29.92,NE,41,10.4,10.4,80,0.00,CLR,,0.66,WeatherDisplay:10.37,2013-11-24 00:29:00,
2013-11-23 18:34:00,81.9,74.7,29.92,NE,54,10.4,10.4,79,0.00,CLR,,0.66,WeatherDisplay:10.37,2013-11-24 00:34:00,
2013-11-23 18:39:00,82.0,75.2,29.93,NE,51,11.5,11.5,80,0.00,CLR,,0.66,WeatherDisplay:10.37,2013-11-24 00:39:00,
2013-11-23 18:44:00,81.9,74.7,29.93,NE,52,8.1,8.1,79,0.00,CLR,,0.66,WeatherDisplay:10.37,2013-11-24 00:44:00,
2013-11-23 18:49:00,82.0,74.8,29.93,NE,46,11.5,11.5,79,0.00,CLR,,0.66,WeatherDisplay:10.37,2013-11-24 00:49:00,
2013-11-23 18:54:00,81.9,74.7,29.93,North,7,11.5,11.5,79,0.00,CLR,,0.66,WeatherDisplay:10.37,2013-11-24 00:54:00,
2013-11-23 18:59:00,82.0,75.2,29.93,NE,41,10.4,10.4,80,0.00,CLR,,0.66,WeatherDisplay:10.37,2013-11-24 00:59:00,
2013-11-23 19:04:00,82.2,75.4,29.93,NE,54,11.5,11.5,80,0.00,CLR,,0.66,WeatherDisplay:10.37,2013-11-24 01:04:00,
2013-11-23 19:09:00,82.1,74.9,29.93,ENE,65,11.5,11.5,79,0.00,CLR,,0.66,WeatherDisplay:10.37,2013-11-24 01:09:00,
2013-11-23 19:15:00,82.1,74.9,29.93,NE,52,12.0,12.0,79,0.00,CLR,,0.66,WeatherDisplay:10.37,2013-11-24 01:15:00,
2013-11-23 19:20:00,82.3,74.7,29.93,ENE,60,13.0,13.0,78,0.00,CLR,,0.66,WeatherDisplay:10.37,2013-11-24 01:20:00,
2013-11-23 19:25:00,82.3,74.7,29.94,ENE,58,12.0,12.0,78,0.00,CLR,,0.66,WeatherDisplay:10.37,2013-11-24 01:25:00,
2013-11-23 19:30:00,82.2,74.3,29.94,NNE,22,11.5,11.5,77,0.00,CLR,,0.66,WeatherDisplay:10.37,2013-11-24 01:30:00,
2013-11-23 19:35:00,82.2,74.7,29.94,NE,36,11.5,11.5,78,0.00,CLR,,0.66,WeatherDisplay:10.37,2013-11-24 01:35:00,
2013-11-23 19:40:00,82.3,74.7,29.94,NE,50,12.7,12.7,78,0.00,CLR,,0.66,WeatherDisplay:10.37,2013-11-24 01:40:00,
2013-11-23 19:45:00,82.2,74.7,29.94,NE,50,11.5,11.5,78,0.00,CLR,,0.66,WeatherDisplay:10.37,2013-11-24 01:45:00,
2013-11-23 19:50:00,82.2,74.7,29.95,NNE,15,11.5,11.5,78,0.00,CLR,,0.66,WeatherDisplay:10.37,2013-11-24 01:50:00,
2013-11-23 19:55:00,81.9,74.4,29.95,ENE,58,10.4,10.4,78,0.00,CLR,,0.66,WeatherDisplay:10.37,2013-11-24 01:55:00,
2013-11-23 20:00:00,82.0,74.5,29.95,NNE,25,10.4,10.4,78,0.00,CLR,,0.66,WeatherDisplay:10.37,2013-11-24 02:00:00,
2013-11-23 20:05:00,82.0,74.1,29.95,NE,50,11.5,11.5,77,0.00,CLR,,0.66,WeatherDisplay:10.37,2013-11-24 02:05:00,
2013-11-23 20:10:00,82.0,74.1,29.95,NNE,25,11.5,11.5,77,0.00,CLR,,0.66,WeatherDisplay:10.37,2013-11-24 02:10:00,
2013-11-23 20:15:00,82.1,74.2,29.95,ENE,66,11.0,11.0,77,0.00,CLR,,0.66,WeatherDisplay:10.37,2013-11-24 02:15:00,
2013-11-23 20:20:00,82.1,74.2,29.95,ENE,57,11.5,11.5,77,0.00,CLR,,0.66,WeatherDisplay:10.37,2013-11-24 02:20:00,
2013-11-23 20:25:00,81.9,74.0,29.95,NNE,21,9.2,9.2,77,0.00,CLR,,0.66,WeatherDisplay:10.37,2013-11-24 02:25:00,
2013-11-23 20:30:00,82.0,74.1,29.96,ENE,58,10.4,10.4,77,0.00,CLR,,0.66,WeatherDisplay:10.37,2013-11-24 02:30:00,
2013-11-23 20:35:00,81.8,73.5,29.96,NE,46,8.1,8.1,76,0.00,CLR,,0.66,WeatherDisplay:10.37,2013-11-24 02:35:00,
2013-11-23 20:40:00,81.8,73.5,29.96,NNE,17,6.9,6.9,76,0.00,CLR,,0.66,WeatherDisplay:10.37,2013-11-24 02:40:00,
2013-11-23 20:45:00,81.8,73.1,29.96,East,81,10.4,10.4,75,0.00,CLR,,0.66,WeatherDisplay:10.37,2013-11-24 02:45:00,
2013-11-23 20:50:00,82.1,73.8,29.96,ENE,59,11.5,11.5,76,0.00,CLR,,0.66,WeatherDisplay:10.37,2013-11-24 02:50:00,
2013-11-23 20:55:00,82.1,73.8,29.96,ENE,67,11.5,11.5,76,0.00,CLR,,0.66,WeatherDisplay:10.37,2013-11-24 02:55:00,
2013-11-23 21:00:00,82.0,73.7,29.96,ENE,59,11.5,11.5,76,0.00,CLR,,0.66,WeatherDisplay:10.37,2013-11-24 03:00:00,
2013-11-23 21:05:00,82.0,73.7,29.96,ENE,58,10.4,10.4,76,0.00,CLR,,0.66,WeatherDisplay:10.37,2013-11-24 03:05:00,
2013-11-23 21:10:00,82.0,74.1,29.96,NNE,30,10.4,10.4,77,0.00,CLR,,0.66,WeatherDisplay:10.37,2013-11-24 03:10:00,
2013-11-23 21:15:00,81.8,73.5,29.96,NNE,21,4.6,4.6,76,0.00,CLR,,0.66,WeatherDisplay:10.37,2013-11-24 03:15:00,
2013-11-23 21:20:00,81.6,73.7,29.95,NE,47,7.0,10.0,77,0.00,CLR,,0.66,WeatherDisplay:10.37,2013-11-24 03:20:00,
2013-11-23 21:25:00,81.9,74.4,29.96,ENE,57,11.5,11.5,78,0.00,CLR,,0.66,WeatherDisplay:10.37,2013-11-24 03:25:00,
2013-11-23 21:30:00,81.9,74.4,29.95,NE,54,11.5,11.5,78,0.00,CLR,,0.66,WeatherDisplay:10.37,2013-11-24 03:30:00,
2013-11-23 21:35:00,81.9,73.6,29.95,ENE,58,9.0,12.0,76,0.00,CLR,,0.66,WeatherDisplay:10.37,2013-11-24 03:35:00,
2013-11-23 21:40:00,82.0,73.7,29.96,NE,53,10.4,10.4,76,0.00,CLR,,0.66,WeatherDisplay:10.37,2013-11-24 03:40:00,
2013-11-23 21:45:00,82.0,73.7,29.96,NE,56,10.4,10.4,76,0.00,CLR,,0.66,WeatherDisplay:10.37,2013-11-24 03:45:00,
2013-11-23 21:50:00,82.1,74.2,29.96,ENE,66,9.2,9.2,77,0.00,CLR,,0.66,WeatherDisplay:10.37,2013-11-24 03:50:00,
2013-11-23 21:55:00,82.0,73.7,29.96,ENE,64,8.0,12.0,76,0.00,CLR,,0.66,WeatherDisplay:10.37,2013-11-24 03:55:00,
2013-11-23 22:00:00,82.0,73.7,29.96,ENE,65,9.0,12.0,76,0.00,CLR,,0.66,WeatherDisplay:10.37,2013-11-24 04:00:00,
2013-11-23 22:05:00,82.0,73.7,29.96,ENE,65,11.5,11.5,76,0.00,CLR,,0.66,WeatherDisplay:10.37,2013-11-24 04:05:00,
2013-11-23 22:10:00,82.0,73.7,29.96,NE,52,10.4,10.4,76,0.00,CLR,,0.66,WeatherDisplay:10.37,2013-11-24 04:10:00,
2013-11-23 22:15:00,82.0,73.7,29.96,ENE,62,9.0,12.0,76,0.00,CLR,,0.66,WeatherDisplay:10.37,2013-11-24 04:15:00,
2013-11-23 22:20:00,82.0,74.1,29.96,ENE,63,10.4,10.4,77,0.00,CLR,,0.66,WeatherDisplay:10.37,2013-11-24 04:20:00,
2013-11-23 22:25:00,82.0,74.1,29.97,NE,56,9.2,9.2,77,0.00,CLR,,0.66,WeatherDisplay:10.37,2013-11-24 04:25:00,
2013-11-23 22:30:00,82.0,74.1,29.96,ENE,60,7.0,10.0,77,0.00,CLR,,0.66,WeatherDisplay:10.37,2013-11-24 04:30:00,
2013-11-23 22:35:00,82.0,73.7,29.97,ENE,64,9.0,12.0,76,0.00,CLR,,0.66,WeatherDisplay:10.37,2013-11-24 04:35:00,
2013-11-23 22:40:00,82.0,74.1,29.96,ENE,60,9.2,9.2,77,0.00,CLR,,0.66,WeatherDisplay:10.37,2013-11-24 04:40:00,
2013-11-23 22:45:00,82.0,74.1,29.96,ENE,69,8.0,10.0,77,0.00,CLR,,0.66,WeatherDisplay:10.37,2013-11-24 04:45:00,
2013-11-23 22:50:00,82.1,74.2,29.96,ENE,74,9.2,9.2,77,0.00,CLR,,0.66,WeatherDisplay:10.37,2013-11-24 04:50:00,
2013-11-23 22:55:00,82.0,74.1,29.96,ENE,68,7.0,10.0,77,0.00,CLR,,0.66,WeatherDisplay:10.37,2013-11-24 04:55:00,
2013-11-23 23:00:00,82.0,74.1,29.97,ENE,67,5.0,8.0,77,0.00,CLR,,0.66,WeatherDisplay:10.37,2013-11-24 05:00:00,
2013-11-23 23:01:00,82.0,74.1,29.97,ENE,63,5.8,5.8,77,0.00,CLR,,0.66,WeatherDisplay:10.37,2013-11-24 05:01:00,
2013-11-23 23:02:00,82.0,74.5,29.97,ENE,63,6.9,6.9,78,0.00,CLR,,0.66,WeatherDisplay:10.37,2013-11-24 05:02:00,
2013-11-23 23:07:00,81.9,74.0,29.96,ENE,57,6.9,6.9,77,0.00,CLR,,0.66,WeatherDisplay:10.37,2013-11-24 05:07:00,
2013-11-23 23:12:00,82.0,74.1,29.96,East,86,8.1,8.1,77,0.00,CLR,,0.66,WeatherDisplay:10.37,2013-11-24 05:12:00,
2013-11-23 23:17:00,81.9,74.0,29.96,ENE,71,7.0,7.0,77,0.00,CLR,,0.66,WeatherDisplay:10.37,2013-11-24 05:17:00,
2013-11-23 23:22:00,81.9,74.4,29.96,ENE,70,4.6,4.6,78,0.00,CLR,,0.66,WeatherDisplay:10.37,2013-11-24 05:22:00,
2013-11-23 23:27:00,81.8,73.9,29.96,ENE,58,3.5,3.5,77,0.00,CLR,,0.66,WeatherDisplay:10.37,2013-11-24 05:27:00,
2013-11-23 23:32:00,81.8,74.3,29.96,NE,54,3.5,3.5,78,0.00,CLR,,0.66,WeatherDisplay:10.37,2013-11-24 05:32:00,
2013-11-23 23:37:00,81.6,74.1,29.96,NE,52,1.1,1.1,78,0.00,CLR,,0.66,WeatherDisplay:10.37,2013-11-24 05:37:00,
2013-11-23 23:42:00,81.4,73.9,29.96,NE,52,2.3,2.3,78,0.00,CLR,,0.66,WeatherDisplay:10.37,2013-11-24 05:42:00,
2013-11-23 23:47:00,81.2,73.7,29.96,NE,50,3.5,3.5,78,0.00,CLR,,0.66,WeatherDisplay:10.37,2013-11-24 05:47:00,
2013-11-23 23:52:00,81.1,73.6,29.96,NE,50,1.1,0.0,78,0.00,CLR,,0.66,WeatherDisplay:10.37,2013-11-24 05:52:00,
2013-11-23 23:57:00,81.1,73.6,29.96,NE,50,0.0,0.0,78,0.00,CLR,,0.66,WeatherDisplay:10.37,2013-11-24 05:57:00,
2013-11-23 23:58:00,81.0,73.5,29.96,NE,50,0.0,0.0,78,0.00,CLR,,0.66,WeatherDisplay:10.37,2013-11-24 05:58:00,